createdAt,value
2023-03-13T00:09:31.626Z,1.98
2023-03-13T00:19:33.162Z,1.38
2023-03-13T00:29:34.930Z,1.17
2023-03-13T00:39:36.589Z,1.30
2023-03-13T00:49:38.207Z,1.40
2023-03-13T00:59:40.788Z,1.70
2023-03-13T01:09:42.364Z,1.52
2023-03-13T01:19:44.376Z,1.60
2023-03-13T01:29:46.036Z,1.65
2023-03-13T01:39:47.795Z,1.65
2023-03-13T01:49:51.244Z,1.45
2023-03-13T02:00:16.803Z,1.27
2023-03-13T02:10:19.916Z,1.67
2023-03-13T02:20:22.314Z,1.63
2023-03-13T02:30:27.656Z,1.67
2023-03-13T02:40:38.681Z,1.30
2023-03-13T02:50:40.494Z,1.25
2023-03-13T03:00:42.298Z,1.27
2023-03-13T03:10:44.024Z,1.00
2023-03-13T03:20:45.940Z,1.02
2023-03-13T03:30:47.598Z,1.10
2023-03-13T03:40:49.694Z,0.93
2023-03-13T03:50:51.609Z,1.00
2023-03-13T04:00:56.625Z,1.15
2023-03-13T04:11:01.634Z,1.20
2023-03-13T04:21:06.034Z,0.90
2023-03-13T04:31:16.011Z,0.90
2023-03-13T04:41:36.508Z,0.80
2023-03-13T04:51:52.973Z,0.65
2023-03-13T05:02:19.104Z,0.90
2023-03-13T05:12:39.540Z,0.70
2023-03-13T05:22:48.478Z,0.50
2023-03-13T05:33:16.256Z,0.70
2023-03-13T05:43:30.481Z,0.32
2023-03-13T05:53:56.808Z,0.40
2023-03-13T06:04:18.818Z,0.40
2023-03-13T06:14:21.303Z,0.43
2023-03-13T06:24:45.006Z,0.40
2023-03-13T06:34:46.712Z,0.32
2023-03-13T06:44:48.623Z,0.90
2023-03-13T06:54:50.178Z,0.40
2023-03-13T07:04:52.563Z,0.40
2023-03-13T07:14:54.215Z,0.57
2023-03-13T07:24:55.932Z,0.30
2023-03-13T07:34:57.614Z,0.40
2023-03-13T07:44:59.215Z,0.50
2023-03-13T07:55:00.832Z,0.60
2023-03-13T08:05:02.436Z,0.85
2023-03-13T08:15:04.074Z,0.60
2023-03-13T08:25:05.927Z,0.50
2023-03-13T08:35:08.058Z,0.75
2023-03-13T08:45:10.022Z,0.50
2023-03-13T08:55:11.613Z,0.50
2023-03-13T09:05:13.297Z,0.52
2023-03-13T09:15:14.943Z,0.43
2023-03-13T09:25:16.585Z,0.50
2023-03-13T09:35:18.139Z,0.50
2023-03-13T09:45:32.533Z,0.60
2023-03-13T09:55:36.610Z,0.70
2023-03-13T10:05:39.984Z,0.47
2023-03-13T10:16:09.640Z,0.60
2023-03-13T10:26:17.665Z,1.35
2023-03-13T10:36:19.623Z,0.60
2023-03-13T10:46:33.391Z,0.50
2023-03-13T10:56:34.984Z,0.73
2023-03-13T11:06:41.453Z,0.43
2023-03-13T11:16:54.394Z,0.50
2023-03-13T11:27:21.131Z,0.63
2023-03-13T11:37:22.837Z,0.95
2023-03-13T11:47:32.191Z,0.70
2023-03-13T11:57:49.253Z,0.60
2023-03-13T12:07:52.957Z,0.70
2023-03-13T12:18:00.201Z,0.63
2023-03-13T12:28:24.809Z,0.85
2023-03-13T12:38:31.327Z,0.70
2023-03-13T12:48:42.989Z,0.70
2023-03-13T12:58:54.424Z,0.60
2023-03-13T13:09:15.376Z,0.70
2023-03-13T13:19:22.790Z,0.68
2023-03-13T13:29:25.263Z,0.60
2023-03-13T13:39:43.495Z,0.40
2023-03-13T13:49:55.910Z,0.68
2023-03-13T14:00:25.224Z,0.52
2023-03-13T14:10:36.327Z,0.98
2023-03-13T14:20:39.883Z,0.50
2023-03-13T14:30:44.168Z,0.77
2023-03-13T14:40:48.593Z,0.70
2023-03-13T14:51:14.299Z,0.70
2023-03-13T15:01:30.568Z,0.70
2023-03-13T15:11:33.916Z,1.08
2023-03-13T15:21:35.939Z,0.98
2023-03-13T15:31:37.786Z,1.08
2023-03-13T15:41:39.425Z,1.02
2023-03-13T15:51:41.344Z,1.08
2023-03-13T16:01:45.000Z,0.90
2023-03-13T16:11:47.892Z,0.90
2023-03-13T16:21:50.473Z,1.00
2023-03-13T16:31:52.035Z,0.80
2023-03-13T16:41:54.655Z,0.80
2023-03-13T16:51:56.222Z,1.25
2023-03-13T17:01:58.054Z,1.95
2023-03-13T17:11:59.887Z,2.28
2023-03-13T17:22:02.776Z,1.80
2023-03-13T17:32:06.187Z,2.20
2023-03-13T17:42:08.111Z,2.20
2023-03-13T17:52:13.227Z,2.33
2023-03-13T18:02:16.128Z,2.13
2023-03-13T18:12:17.728Z,2.45
2023-03-13T18:22:23.225Z,1.75
2023-03-13T18:32:24.890Z,2.00
2023-03-13T18:42:26.922Z,2.38
2023-03-13T18:52:28.517Z,2.20
2023-03-13T19:02:30.169Z,1.80
2023-03-13T19:12:31.767Z,1.83
2023-03-13T19:22:33.373Z,2.20
2023-03-13T19:32:37.059Z,2.03
2023-03-13T19:42:38.761Z,1.88
2023-03-13T19:52:40.343Z,2.00
2023-03-13T20:02:42.208Z,2.70
2023-03-13T20:12:43.841Z,2.05
2023-03-13T20:22:46.465Z,2.55
2023-03-13T20:32:58.764Z,1.80
2023-03-13T20:43:01.500Z,1.63
2023-03-13T20:53:03.068Z,1.85
2023-03-13T21:03:04.805Z,1.80
2023-03-13T21:13:08.467Z,1.73
2023-03-13T21:23:10.104Z,1.75
2023-03-13T21:33:11.876Z,1.63
2023-03-13T21:43:14.695Z,2.28
2023-03-13T21:53:16.296Z,1.90
2023-03-13T22:03:18.860Z,1.90
2023-03-13T22:13:20.852Z,1.83
2023-03-13T22:23:22.664Z,1.98
2023-03-13T22:33:24.303Z,2.08
2023-03-13T22:43:27.561Z,1.77
2023-03-13T22:53:29.931Z,1.98
2023-03-13T23:03:31.498Z,1.90
2023-03-13T23:13:33.251Z,1.52
2023-03-13T23:23:36.433Z,1.95
2023-03-13T23:33:38.266Z,1.75
2023-03-13T23:43:40.330Z,1.83
2023-03-13T23:53:43.135Z,1.73
